Time;durP1;ratioP1;P1;durP2;ratioP2;P2;SDS_P1;SDS_P2;PMS_P1;PMS_P2;Temp;Humidity;BMP_temperature;BMP_pressure;BME280_temperature;BME280_humidity;BME280_pressure;Samples;Min_cycle;Max_cycle;Signal;HPM_P1;HPM_P2
2021/04/26 00:00:12;;;;;;;9.80;2.50;;;4.70;95.30;;;;;;4389049;32;20152;-59
2021/04/26 00:02:38;;;;;;;6.20;2.43;;;4.70;95.30;;;;;;4385761;32;20156;-61
2021/04/26 00:05:09;;;;;;;9.90;2.97;;;4.80;95.40;;;;;;4389666;32;20171;-61
2021/04/26 00:07:41;;;;;;;10.17;2.83;;;4.60;95.50;;;;;;4381917;32;20215;-61
2021/04/26 00:10:09;;;;;;;10.80;2.80;;;4.60;95.60;;;;;;4376818;32;20223;-61
2021/04/26 00:12:40;;;;;;;16.30;2.60;;;4.60;95.70;;;;;;4376463;32;20576;-60
2021/04/26 00:15:16;;;;;;;9.03;3.03;;;4.60;95.70;;;;;;4376146;32;20148;-62
2021/04/26 00:17:49;;;;;;;13.97;2.90;;;4.50;95.90;;;;;;4379767;32;20159;-61
2021/04/26 00:20:24;;;;;;;12.03;3.27;;;4.50;95.90;;;;;;4388645;32;20240;-60
2021/04/26 00:22:53;;;;;;;12.33;2.70;;;4.50;96.00;;;;;;4389767;32;20589;-60
2021/04/26 00:25:19;;;;;;;8.30;2.60;;;4.50;96.10;;;;;;4389235;32;20159;-59
2021/04/26 00:27:48;;;;;;;7.30;2.57;;;4.50;96.10;;;;;;4379581;32;20165;-59
2021/04/26 00:30:18;;;;;;;10.80;2.70;;;4.50;96.20;;;;;;4387906;32;20157;-61
2021/04/26 00:32:56;;;;;;;5.03;2.27;;;4.40;96.20;;;;;;4379855;32;20563;-58
2021/04/26 00:35:23;;;;;;;5.47;2.70;;;4.40;96.30;;;;;;4376775;32;20163;-60
2021/04/26 00:37:53;;;;;;;8.50;2.90;;;4.30;96.40;;;;;;4377376;32;20156;-59
2021/04/26 00:40:20;;;;;;;12.83;3.20;;;4.30;96.50;;;;;;4379315;32;20160;-61
2021/04/26 00:42:59;;;;;;;8.67;3.03;;;4.30;96.60;;;;;;4375231;32;20167;-59
2021/04/26 00:45:26;;;;;;;11.20;3.37;;;4.30;96.60;;;;;;4386882;32;20912;-59
2021/04/26 00:47:53;;;;;;;6.97;2.67;;;4.30;96.60;;;;;;4387957;32;20468;-59
2021/04/26 00:50:24;;;;;;;9.30;3.03;;;4.30;96.60;;;;;;4384791;32;20160;-61
2021/04/26 00:52:59;;;;;;;6.57;2.80;;;4.30;96.70;;;;;;4383363;32;20154;-59
2021/04/26 00:55:28;;;;;;;8.47;2.53;;;4.30;96.70;;;;;;4376211;32;20209;-59
2021/04/26 00:57:56;;;;;;;8.97;2.77;;;4.30;96.80;;;;;;4384256;32;20217;-60
2021/04/26 01:00:26;;;;;;;9.07;3.20;;;4.30;96.90;;;;;;4386272;32;20170;-59
2021/04/26 01:02:52;;;;;;;4.87;2.60;;;4.20;96.90;;;;;;4380388;32;20518;-59
2021/04/26 01:05:22;;;;;;;8.83;2.93;;;4.20;97.00;;;;;;4386170;32;20198;-59
2021/04/26 01:07:54;;;;;;;9.37;2.47;;;4.20;97.10;;;;;;4386097;32;20155;-59
2021/04/26 01:10:24;;;;;;;12.63;2.60;;;4.10;97.20;;;;;;4385442;32;20636;-60
2021/04/26 01:13:13;;;;;;;14.03;3.47;;;4.20;97.20;;;;;;4388440;32;20140;-58
2021/04/26 01:15:47;;;;;;;9.30;3.03;;;4.20;97.40;;;;;;4384141;32;20146;-59
2021/04/26 01:18:21;;;;;;;12.13;2.70;;;4.10;97.40;;;;;;4380595;32;20463;-59
2021/04/26 01:21:28;;;;;;;16.30;3.17;;;4.10;97.40;;;;;;4379478;32;20180;-59
2021/04/26 01:24:25;;;;;;;12.57;3.23;;;4.10;97.50;;;;;;4383701;32;20160;-59
2021/04/26 01:27:06;;;;;;;10.77;2.90;;;4.10;97.50;;;;;;4374747;32;20168;-60
2021/04/26 01:30:15;;;;;;;10.40;3.90;;;4.00;97.70;;;;;;4382424;32;20144;-59
2021/04/26 01:33:01;;;;;;;10.10;3.20;;;4.00;97.60;;;;;;4334900;33;20157;-58
2021/04/26 01:35:32;;;;;;;9.07;3.07;;;4.20;97.80;;;;;;4331098;33;20180;-59
2021/04/26 01:38:08;;;;;;;8.43;3.03;;;4.10;97.70;;;;;;4332754;33;20161;-59
2021/04/26 01:40:41;;;;;;;8.93;3.37;;;4.10;97.70;;;;;;4331469;33;20162;-61
2021/04/26 01:43:08;;;;;;;7.73;2.60;;;4.00;97.80;;;;;;4331788;33;20163;-60
2021/04/26 01:45:44;;;;;;;15.83;3.90;;;4.00;98.00;;;;;;4335822;33;20200;-59
2021/04/26 01:48:12;;;;;;;10.00;3.30;;;4.00;98.00;;;;;;4330829;33;20235;-60
2021/04/26 01:50:40;;;;;;;8.33;3.10;;;4.00;98.00;;;;;;4337093;33;20161;-60
2021/04/26 01:53:07;;;;;;;5.83;2.63;;;4.00;98.10;;;;;;4331411;33;20212;-59
2021/04/26 01:55:40;;;;;;;7.10;3.23;;;3.90;98.10;;;;;;4330669;33;20570;-59
2021/04/26 01:58:08;;;;;;;12.97;3.83;;;3.90;98.10;;;;;;4330276;33;20215;-60
2021/04/26 02:00:39;;;;;;;10.93;3.50;;;3.90;98.20;;;;;;4330807;33;20182;-58
2021/04/26 02:03:08;;;;;;;6.77;3.10;;;3.90;98.40;;;;;;4329594;33;20166;-61
2021/04/26 02:05:38;;;;;;;12.83;3.20;;;3.90;98.30;;;;;;4330055;33;20158;-61
2021/04/26 02:08:06;;;;;;;10.67;3.33;;;3.90;98.30;;;;;;4329531;32;20342;-60
2021/04/26 02:10:36;;;;;;;5.30;2.87;;;3.90;98.40;;;;;;4375707;32;20220;-61
2021/04/26 02:13:07;;;;;;;10.13;4.00;;;3.90;98.40;;;;;;4377657;32;20427;-60
2021/04/26 02:15:41;;;;;;;12.20;3.37;;;3.80;98.40;;;;;;4386511;32;20187;-60
2021/04/26 02:18:09;;;;;;;6.17;2.97;;;3.80;98.50;;;;;;4385742;32;20152;-60
2021/04/26 02:20:36;;;;;;;13.53;3.00;;;3.80;98.60;;;;;;4383739;32;20192;-59
2021/04/26 02:23:04;;;;;;;9.17;2.83;;;3.80;98.50;;;;;;4390981;32;20183;-60
2021/04/26 02:25:35;;;;;;;7.70;2.73;;;3.70;98.60;;;;;;4393446;32;20167;-59
2021/04/26 02:28:02;;;;;;;8.20;2.83;;;3.70;98.60;;;;;;4388206;32;20234;-60
2021/04/26 02:30:33;;;;;;;7.00;2.97;;;3.80;98.60;;;;;;4389986;32;20475;-60
2021/04/26 02:33:06;;;;;;;12.97;3.23;;;3.70;98.60;;;;;;4391855;32;20210;-59
2021/04/26 02:35:37;;;;;;;7.77;3.00;;;3.70;98.70;;;;;;4382032;32;20169;-59
2021/04/26 02:38:34;;;;;;;7.63;2.87;;;3.70;98.70;;;;;;4379309;32;20271;-59
2021/04/26 02:41:07;;;;;;;10.97;2.73;;;3.70;98.80;;;;;;4371605;32;20188;-59
2021/04/26 02:43:40;;;;;;;11.93;3.30;;;3.60;98.90;;;;;;4366178;32;20161;-61
2021/04/26 02:46:08;;;;;;;9.13;3.30;;;3.60;99.00;;;;;;4374308;32;20180;-59
2021/04/26 02:48:36;;;;;;;8.23;2.90;;;3.70;98.90;;;;;;4369261;32;20185;-59
2021/04/26 02:51:07;;;;;;;9.53;3.17;;;3.60;98.90;;;;;;4371325;32;20180;-59
2021/04/26 02:53:36;;;;;;;11.03;2.80;;;3.60;99.00;;;;;;4373638;32;20172;-59
2021/04/26 02:56:12;;;;;;;7.03;3.03;;;3.60;99.10;;;;;;4374413;32;20164;-57
2021/04/26 02:58:49;;;;;;;6.20;3.00;;;3.60;99.10;;;;;;4367184;32;20156;-59
2021/04/26 03:01:24;;;;;;;8.80;3.23;;;3.50;99.20;;;;;;4372305;32;20235;-58
2021/04/26 03:03:59;;;;;;;6.80;3.07;;;3.50;99.20;;;;;;4375679;32;20718;-61
2021/04/26 03:06:27;;;;;;;6.20;2.63;;;3.50;99.10;;;;;;4376258;32;20142;-56
2021/04/26 03:08:57;;;;;;;9.33;3.33;;;3.50;99.10;;;;;;4378800;32;20174;-60
2021/04/26 03:11:26;;;;;;;6.20;3.00;;;3.50;99.30;;;;;;4376582;32;20148;-63
2021/04/26 03:14:07;;;;;;;11.43;3.13;;;3.50;99.30;;;;;;4378735;32;20608;-61
2021/04/26 03:23:46;;;;;;;5.90;2.80;;;3.50;99.20;;;;;;4386355;32;20531;-61
2021/04/26 03:26:13;;;;;;;6.47;2.93;;;3.40;99.20;;;;;;4385499;32;20152;-59
2021/04/26 03:28:45;;;;;;;6.57;3.07;;;3.40;99.20;;;;;;4385781;32;20144;-60
2021/04/26 03:31:11;;;;;;;11.07;3.07;;;3.40;99.20;;;;;;4388413;32;20153;-58
2021/04/26 03:33:41;;;;;;;9.00;2.90;;;3.40;99.30;;;;;;4390402;32;20187;-61
2021/04/26 03:36:09;;;;;;;6.83;3.13;;;3.50;99.40;;;;;;4385544;32;20148;-60
2021/04/26 03:38:39;;;;;;;7.50;3.30;;;3.40;99.40;;;;;;4380327;32;20443;-60
2021/04/26 03:41:07;;;;;;;10.70;3.50;;;3.30;99.60;;;;;;4384744;32;20601;-61
2021/04/26 03:43:34;;;;;;;7.90;2.97;;;3.30;99.60;;;;;;4381327;32;20453;-60
2021/04/26 03:46:01;;;;;;;12.90;2.63;;;3.30;99.70;;;;;;4385229;32;20484;-62
2021/04/26 03:48:27;;;;;;;9.07;2.87;;;3.40;99.70;;;;;;4379790;32;20200;-61
2021/04/26 03:50:54;;;;;;;7.57;2.80;;;3.30;99.70;;;;;;4381639;32;20164;-62
2021/04/26 03:53:20;;;;;;;6.93;3.03;;;3.40;99.70;;;;;;4389806;32;20467;-60
2021/04/26 03:55:47;;;;;;;5.57;2.73;;;3.30;99.70;;;;;;4390778;32;20160;-63
2021/04/26 03:58:14;;;;;;;8.37;2.87;;;3.40;99.70;;;;;;4377755;32;20161;-60
2021/04/26 04:00:41;;;;;;;13.07;3.97;;;3.30;99.70;;;;;;4376914;32;20152;-62
2021/04/26 04:03:08;;;;;;;8.90;2.67;;;3.30;99.70;;;;;;4387703;32;20184;-59
2021/04/26 04:05:37;;;;;;;8.70;3.97;;;3.30;99.50;;;;;;4390463;32;20175;-59
2021/04/26 04:08:04;;;;;;;6.70;2.77;;;3.30;99.70;;;;;;4389397;32;22147;-62
2021/04/26 04:10:31;;;;;;;9.23;3.47;;;3.30;99.60;;;;;;4377697;32;20145;-61
2021/04/26 04:12:58;;;;;;;7.43;3.00;;;3.40;99.70;;;;;;4378579;32;20190;-62
2021/04/26 04:15:25;;;;;;;12.27;3.17;;;3.30;99.70;;;;;;4376055;32;20158;-61
2021/04/26 04:17:52;;;;;;;7.10;2.87;;;3.30;99.70;;;;;;4376988;32;20136;-61
2021/04/26 04:20:18;;;;;;;7.13;2.90;;;3.30;99.60;;;;;;4388554;32;20617;-61
2021/04/26 04:22:45;;;;;;;8.43;2.67;;;3.30;99.60;;;;;;4378542;32;20191;-58
2021/04/26 04:25:12;;;;;;;7.23;3.63;;;3.30;99.60;;;;;;4383144;32;20156;-58
2021/04/26 04:27:40;;;;;;;11.73;3.03;;;3.30;99.70;;;;;;4376099;32;20175;-61
2021/04/26 04:30:10;;;;;;;8.03;3.30;;;3.40;99.70;;;;;;4376065;32;20168;-60
2021/04/26 04:32:38;;;;;;;8.13;3.53;;;3.40;99.70;;;;;;4381213;32;20246;-59
2021/04/26 04:35:05;;;;;;;6.43;3.03;;;3.40;99.70;;;;;;4378678;32;20178;-59
2021/04/26 04:37:35;;;;;;;7.07;2.83;;;3.40;99.70;;;;;;4376077;32;20203;-60
2021/04/26 04:40:06;;;;;;;7.30;3.40;;;3.30;99.80;;;;;;4382939;32;20194;-61
2021/04/26 04:42:36;;;;;;;9.67;3.20;;;3.30;99.90;;;;;;4389042;32;20208;-60
2021/04/26 04:45:03;;;;;;;7.70;3.83;;;3.30;99.90;;;;;;4390993;32;20190;-61
2021/04/26 04:47:31;;;;;;;6.80;3.10;;;3.40;99.90;;;;;;4390740;32;20167;-60
2021/04/26 04:49:59;;;;;;;11.37;3.77;;;3.40;99.90;;;;;;4379741;32;20152;-59
2021/04/26 04:52:25;;;;;;;7.87;3.50;;;3.40;99.90;;;;;;4386935;32;20214;-59
2021/04/26 04:54:52;;;;;;;12.67;3.50;;;3.40;99.90;;;;;;4375566;32;20170;-61
2021/04/26 04:57:19;;;;;;;13.77;3.60;;;3.50;99.90;;;;;;4375517;32;20163;-59
2021/04/26 04:59:45;;;;;;;9.77;3.50;;;3.50;99.80;;;;;;4375353;32;20190;-60
2021/04/26 05:02:11;;;;;;;11.90;3.77;;;3.60;99.70;;;;;;4376072;32;20566;-61
2021/04/26 05:04:39;;;;;;;8.60;3.07;;;4.00;99.90;;;;;;4387646;32;20629;-61
2021/04/26 05:07:07;;;;;;;6.23;2.50;;;5.40;98.40;;;;;;4389934;32;20150;-59
2021/04/26 05:09:34;;;;;;;8.17;2.60;;;6.60;95.20;;;;;;4385566;32;20152;-62
2021/04/26 05:12:06;;;;;;;14.03;3.13;;;7.00;93.50;;;;;;4379434;32;20203;-62
2021/04/26 05:14:34;;;;;;;9.60;2.70;;;7.00;93.00;;;;;;4378535;32;20212;-62
2021/04/26 05:17:01;;;;;;;7.90;2.63;;;7.00;92.70;;;;;;4383722;32;20680;-60
2021/04/26 05:19:28;;;;;;;8.23;2.90;;;7.00;92.40;;;;;;4385446;32;20152;-58
2021/04/26 05:21:54;;;;;;;7.33;2.27;;;7.30;92.40;;;;;;4388561;32;20156;-59
2021/04/26 05:24:26;;;;;;;5.50;2.63;;;7.90;91.40;;;;;;4380624;32;20148;-62
2021/04/26 05:26:53;;;;;;;12.37;2.50;;;8.60;90.40;;;;;;4385513;32;20175;-58
2021/04/26 05:29:19;;;;;;;10.97;2.33;;;8.30;89.40;;;;;;4387006;32;20149;-59
2021/04/26 05:31:46;;;;;;;7.60;2.80;;;8.20;90.20;;;;;;4390682;32;20214;-58
2021/04/26 05:34:15;;;;;;;6.80;2.83;;;8.50;88.70;;;;;;4384230;32;20179;-59
2021/04/26 05:36:45;;;;;;;5.67;2.80;;;7.90;89.80;;;;;;4384629;32;20145;-59
2021/04/26 05:39:12;;;;;;;6.10;2.40;;;7.20;91.00;;;;;;4379683;32;20168;-58
2021/04/26 05:41:42;;;;;;;8.17;2.47;;;6.70;92.10;;;;;;4385223;32;20161;-59
2021/04/26 05:44:09;;;;;;;5.67;2.60;;;6.30;93.10;;;;;;4386573;32;20220;-61
2021/04/26 05:46:47;;;;;;;13.00;3.43;;;6.10;93.80;;;;;;4380557;32;20552;-58
2021/04/26 05:49:13;;;;;;;7.63;3.33;;;6.10;94.80;;;;;;4384864;32;20187;-59
2021/04/26 05:51:40;;;;;;;11.80;3.10;;;6.20;94.40;;;;;;4380918;32;20565;-58
2021/04/26 05:54:13;;;;;;;7.13;2.87;;;6.70;93.60;;;;;;4384804;32;20219;-60
2021/04/26 05:56:39;;;;;;;8.33;2.30;;;8.10;92.20;;;;;;4385479;32;20519;-59
2021/04/26 05:59:06;;;;;;;7.70;2.60;;;9.60;88.10;;;;;;4387607;32;20685;-61
2021/04/26 06:01:36;;;;;;;7.70;2.40;;;9.90;84.60;;;;;;4386035;32;20160;-63
2021/04/26 06:04:06;;;;;;;6.33;2.47;;;9.50;84.30;;;;;;4384879;32;20169;-62
2021/04/26 06:06:32;;;;;;;9.17;2.50;;;8.80;86.40;;;;;;4390226;32;20502;-63
2021/04/26 06:08:59;;;;;;;6.53;2.20;;;8.10;89.30;;;;;;4390074;32;20148;-60
2021/04/26 06:11:27;;;;;;;13.53;2.60;;;7.60;90.50;;;;;;4385014;32;20152;-60
2021/04/26 06:13:57;;;;;;;9.50;2.93;;;7.40;91.30;;;;;;4378120;32;20149;-59
2021/04/26 06:16:24;;;;;;;11.47;2.57;;;7.10;91.90;;;;;;4379387;32;20149;-60
2021/04/26 06:18:51;;;;;;;12.67;3.03;;;6.90;92.80;;;;;;4386741;32;20152;-61
2021/04/26 06:21:18;;;;;;;5.60;2.53;;;7.00;92.60;;;;;;4389021;32;20193;-60
2021/04/26 06:23:44;;;;;;;5.93;2.70;;;7.10;92.50;;;;;;4388888;32;20572;-60
2021/04/26 06:26:11;;;;;;;11.00;3.03;;;7.20;92.70;;;;;;4378921;32;20580;-62
2021/04/26 06:28:43;;;;;;;8.80;2.63;;;7.40;92.10;;;;;;4386616;32;20507;-61
2021/04/26 06:31:11;;;;;;;6.27;2.43;;;7.30;92.00;;;;;;4388438;32;20159;-61
2021/04/26 06:33:43;;;;;;;9.10;2.97;;;7.30;92.40;;;;;;4390299;32;20202;-61
2021/04/26 06:36:09;;;;;;;5.17;2.30;;;7.50;92.00;;;;;;4389440;32;20598;-60
2021/04/26 06:38:42;;;;;;;7.63;2.83;;;7.50;91.60;;;;;;4392103;32;20242;-60
2021/04/26 06:41:08;;;;;;;13.00;3.40;;;7.30;91.80;;;;;;4376901;32;20195;-60
2021/04/26 06:43:37;;;;;;;5.53;2.53;;;7.40;92.00;;;;;;4386040;32;20194;-59
2021/04/26 06:46:04;;;;;;;13.30;3.70;;;7.60;91.20;;;;;;4383177;32;20479;-59
2021/04/26 06:48:38;;;;;;;7.93;2.67;;;7.60;91.20;;;;;;4380860;32;20225;-59
2021/04/26 06:51:05;;;;;;;6.27;2.57;;;7.80;91.10;;;;;;4385988;32;20455;-60
2021/04/26 06:53:33;;;;;;;10.50;2.90;;;8.00;90.60;;;;;;4391144;32;20221;-59
2021/04/26 06:55:59;;;;;;;8.20;2.70;;;8.10;90.00;;;;;;4377527;32;20202;-60
2021/04/26 06:58:28;;;;;;;11.23;2.73;;;8.10;89.60;;;;;;4376375;32;20192;-60
2021/04/26 07:00:59;;;;;;;8.43;2.47;;;8.20;90.10;;;;;;4374726;32;20179;-59
2021/04/26 07:03:26;;;;;;;8.57;3.27;;;8.40;88.50;;;;;;4385275;32;20211;-63
2021/04/26 07:05:58;;;;;;;5.63;2.50;;;8.60;87.70;;;;;;4378088;32;20191;-60
2021/04/26 07:08:26;;;;;;;7.67;2.33;;;8.90;86.40;;;;;;4380302;32;20180;-61
2021/04/26 07:10:58;;;;;;;5.20;2.37;;;9.50;84.50;;;;;;4384519;32;20222;-60
2021/04/26 07:13:27;;;;;;;9.17;2.23;;;10.80;80.60;;;;;;4383968;32;20187;-60
2021/04/26 07:15:56;;;;;;;7.10;2.30;;;12.70;74.60;;;;;;4379894;32;20148;-61
2021/04/26 07:18:23;;;;;;;4.43;2.17;;;15.20;67.00;;;;;;4381830;32;20494;-60
2021/04/26 07:20:55;;;;;;;10.43;2.00;;;18.80;56.90;;;;;;4377176;32;20160;-61
2021/04/26 07:23:21;;;;;;;5.20;1.83;;;22.10;48.40;;;;;;4381729;32;20198;-61
2021/04/26 07:25:53;;;;;;;4.60;1.80;;;27.50;38.50;;;;;;4386775;32;20230;-63
2021/04/26 07:28:41;;;;;;;4.37;1.90;;;30.60;31.90;;;;;;4376528;32;20504;-61
2021/04/26 07:31:12;;;;;;;8.00;2.00;;;32.20;30.40;;;;;;4328716;33;20165;-61
2021/04/26 07:33:39;;;;;;;3.97;1.27;;;33.50;28.90;;;;;;4328964;33;20188;-60
2021/04/26 07:36:06;;;;;;;3.70;1.33;;;34.10;28.20;;;;;;4317795;33;20180;-63
2021/04/26 07:38:39;;;;;;;3.10;1.37;;;34.40;28.00;;;;;;4320080;33;20170;-60
2021/04/26 07:41:15;;;;;;;4.17;1.50;;;36.50;27.60;;;;;;4322419;33;20271;-60
2021/04/26 07:43:47;;;;;;;2.95;1.27;;;37.80;26.70;;;;;;4318434;33;20162;-62
2021/04/26 07:46:13;;;;;;;5.35;1.75;;;40.00;26.60;;;;;;4324851;33;20161;-62
2021/04/26 07:48:40;;;;;;;8.70;1.70;;;40.80;25.70;;;;;;4317608;33;20173;-60
2021/04/26 07:51:07;;;;;;;3.20;1.30;;;40.30;25.10;;;;;;4324340;33;20528;-62
2021/04/26 07:53:38;;;;;;;5.80;1.73;;;40.00;25.30;;;;;;4315058;33;20637;-63
2021/04/26 07:56:11;;;;;;;3.70;1.45;;;40.40;25.30;;;;;;4321289;33;20208;-61
2021/04/26 07:58:39;;;;;;;3.42;1.70;;;40.70;25.30;;;;;;4319265;33;20201;-63
2021/04/26 08:01:07;;;;;;;2.97;1.65;;;41.90;24.70;;;;;;4326136;33;20236;-63
2021/04/26 08:03:39;;;;;;;6.90;1.58;;;39.10;24.50;;;;;;4321634;33;20728;-65
2021/04/26 08:06:06;;;;;;;3.75;1.45;;;39.10;24.80;;;;;;4319083;33;20181;-64
2021/04/26 08:08:48;;;;;;;5.85;1.98;;;39.90;24.50;;;;;;4369237;32;20180;-61
2021/04/26 08:11:23;;;;;;;4.68;2.05;;;40.90;24.60;;;;;;4376941;32;20214;-64
2021/04/26 08:14:01;;;;;;;3.03;1.70;;;40.20;24.00;;;;;;4381724;32;20140;-62
2021/04/26 08:16:31;;;;;;;4.35;1.77;;;40.70;24.80;;;;;;4386294;32;20155;-64
2021/04/26 08:19:00;;;;;;;2.53;1.65;;;41.40;23.90;;;;;;4386446;32;20156;-61
2021/04/26 08:21:26;;;;;;;4.50;1.55;;;41.50;23.50;;;;;;4386682;32;20210;-61
2021/04/26 08:23:56;;;;;;;2.35;1.35;;;40.50;23.80;;;;;;4381144;32;20239;-61
2021/04/26 08:26:24;;;;;;;6.32;1.90;;;39.60;24.50;;;;;;4380322;32;20149;-60
2021/04/26 08:28:50;;;;;;;3.17;1.80;;;40.00;24.40;;;;;;4380002;32;20175;-59
2021/04/26 08:31:22;;;;;;;5.85;1.80;;;39.40;23.90;;;;;;4385807;32;20195;-61
2021/04/26 08:33:51;;;;;;;4.95;1.90;;;40.10;23.70;;;;;;4374982;32;20148;-62
2021/04/26 08:36:20;;;;;;;3.22;1.77;;;40.10;23.70;;;;;;4378753;32;20202;-63
2021/04/26 08:38:51;;;;;;;3.80;1.55;;;40.20;24.00;;;;;;4381432;32;20238;-62
2021/04/26 08:41:20;;;;;;;6.37;1.70;;;40.90;24.10;;;;;;4379219;32;20200;-62
2021/04/26 08:44:23;;;;;;;4.93;1.50;;;41.50;23.60;;;;;;4378663;32;20215;-62
2021/04/26 08:50:13;;;;;;;3.72;1.58;;;41.10;23.40;;;;;;4354740;32;20407;-62
2021/04/26 08:52:55;;;;;;;;;;;;;;;;;;;;;
2021/04/26 08:55:30;;;;;;;3.50;1.77;;;40.40;23.90;;;;;;4360650;32;20216;-62
2021/04/26 09:01:10;;;;;;;4.68;1.60;;;41.30;23.80;;;;;;4357083;32;20212;-60
2021/04/26 09:03:52;;;;;;;5.40;1.60;;;41.70;23.20;;;;;;4358201;32;20152;-61
2021/04/26 09:06:59;;;;;;;3.80;2.03;;;41.60;23.20;;;;;;4363294;32;20283;-61
2021/04/26 09:12:50;;;;;;;6.68;2.20;;;37.60;23.60;;;;;;4360408;32;20183;-61
2021/04/26 09:15:34;;;;;;;7.23;2.03;;;36.60;24.30;;;;;;4356885;32;20182;-61
2021/04/26 09:21:34;;;;;;;7.07;2.23;;;31.10;25.90;;;;;;4328312;33;20671;-61
2021/04/26 09:24:15;;;;;;;3.90;2.20;;;24.30;29.30;;;;;;4308822;33;20701;-61
2021/04/26 09:33:02;;;;;;;4.43;1.80;;;17.30;38.00;;;;;;4264679;33;20230;-60
2021/04/26 09:36:10;;;;;;;7.93;2.43;;;16.30;40.00;;;;;;4268962;33;20154;-61
2021/04/26 09:38:44;;;;;;;3.63;2.27;;;14.60;43.60;;;;;;4273152;33;20204;-60
2021/04/26 09:41:26;;;;;;;3.10;1.87;;;14.60;44.40;;;;;;4275393;33;20170;-60
2021/04/26 09:44:10;;;;;;;7.03;2.87;;;13.80;47.00;;;;;;4272239;33;20139;-61
2021/04/26 09:46:47;;;;;;;6.77;2.20;;;13.10;48.70;;;;;;4273128;33;20645;-61
2021/04/26 09:52:21;;;;;;;7.83;2.60;;;13.20;51.20;;;;;;4286299;33;20618;-61
2021/04/26 09:55:09;;;;;;;8.30;2.60;;;12.80;55.80;;;;;;4299365;33;20224;-61
2021/04/26 09:57:53;;;;;;;7.03;2.17;;;13.10;53.90;;;;;;4292514;33;20498;-61
2021/04/26 10:00:51;;;;;;;6.97;2.40;;;13.20;53.90;;;;;;4319777;32;20156;-60
2021/04/26 10:03:29;;;;;;;9.93;2.40;;;13.40;52.20;;;;;;4374776;32;20165;-60
2021/04/26 10:06:20;;;;;;;4.63;2.33;;;13.20;53.20;;;;;;4383977;32;20147;-60
2021/04/26 10:08:56;;;;;;;7.10;2.67;;;13.30;50.80;;;;;;4380465;32;20278;-60
2021/04/26 10:11:45;;;;;;;5.50;2.33;;;13.40;50.80;;;;;;4391275;32;20163;-61
2021/04/26 10:14:18;;;;;;;6.80;2.30;;;13.50;52.00;;;;;;4316428;33;20246;-61
2021/04/26 10:17:11;;;;;;;3.93;2.30;;;13.70;50.10;;;;;;4305446;33;20551;-61
2021/04/26 10:19:49;;;;;;;3.80;1.73;;;13.70;50.10;;;;;;4307796;33;20158;-61
2021/04/26 10:22:46;;;;;;;6.47;2.20;;;13.80;51.90;;;;;;4313669;33;20175;-60
2021/04/26 10:25:18;;;;;;;8.87;2.30;;;14.10;51.20;;;;;;4310716;33;20176;-61
2021/04/26 10:28:03;;;;;;;9.90;2.57;;;14.00;48.50;;;;;;4311233;33;20649;-61
2021/04/26 10:31:20;;;;;;;6.67;2.83;;;13.70;49.00;;;;;;4312519;33;20154;-61
2021/04/26 10:34:14;;;;;;;7.90;2.30;;;13.80;51.00;;;;;;4312498;33;20196;-61
2021/04/26 10:39:40;;;;;;;8.67;2.57;;;13.80;50.10;;;;;;4270999;33;20623;-61
2021/04/26 10:42:12;;;;;;;8.33;2.30;;;14.00;50.20;;;;;;4269242;33;20338;-61
2021/04/26 10:48:16;;;;;;;7.13;2.77;;;14.00;49.90;;;;;;4228363;33;20311;-61
2021/04/26 10:53:53;;;;;;;6.00;2.73;;;14.00;49.00;;;;;;4308317;33;20178;-60
2021/04/26 10:56:42;;;;;;;6.50;2.50;;;13.90;48.30;;;;;;4304730;33;20544;-61
2021/04/26 10:59:51;;;;;;;4.90;2.47;;;13.80;48.10;;;;;;4303753;33;20166;-62
2021/04/26 11:05:34;;;;;;;4.83;2.23;;;13.50;48.70;;;;;;4331704;33;20284;-60
2021/04/26 11:08:42;;;;;;;7.03;2.60;;;13.80;48.00;;;;;;4326915;33;20215;-60
2021/04/26 11:11:16;;;;;;;5.33;2.40;;;13.70;48.40;;;;;;4322522;33;20153;-61
2021/04/26 11:14:14;;;;;;;;;;;;;;;;;;;;;
2021/04/26 11:17:04;;;;;;;7.83;2.90;;;13.90;47.30;;;;;;4327703;33;20145;-62
2021/04/26 11:20:14;;;;;;;;;;;;;;;;;;;;;
2021/04/26 11:23:34;;;;;;;5.73;2.10;;;13.70;48.40;;;;;;4386121;32;20194;-60
2021/04/26 11:30:02;;;;;;;8.53;3.33;;;14.00;47.40;;;;;;4262006;33;20159;-61
2021/04/26 11:33:19;;;;;;;5.40;2.07;;;14.10;47.50;;;;;;4190549;34;20215;-61
2021/04/26 11:36:28;;;;;;;6.47;2.23;;;14.20;48.80;;;;;;4185824;34;20156;-61
2021/04/26 11:39:21;;;;;;;6.07;2.70;;;14.30;48.30;;;;;;4198171;34;20210;-62
2021/04/26 11:45:34;;;;;;;7.03;2.57;;;14.50;47.30;;;;;;4188882;34;20240;-60
2021/04/26 11:48:41;;;;;;;8.13;3.00;;;14.50;47.10;;;;;;4198747;34;20218;-60
2021/04/26 11:58:00;;;;;;;5.77;2.43;;;14.20;47.50;;;;;;4191391;34;20576;-60
2021/04/26 12:03:48;;;;;;;4.87;2.40;;;14.30;48.30;;;;;;4260564;33;20253;-60
2021/04/26 12:06:22;;;;;;;6.07;2.23;;;14.20;47.90;;;;;;4290040;33;20166;-60
2021/04/26 12:09:12;;;;;;;6.30;2.30;;;14.20;47.80;;;;;;4305154;33;20161;-60
2021/04/26 12:11:54;;;;;;;7.53;2.93;;;14.20;48.40;;;;;;4334283;32;20188;-61
2021/04/26 12:14:27;;;;;;;6.67;2.30;;;14.00;47.70;;;;;;4342138;32;20172;-61
2021/04/26 12:17:19;;;;;;;7.00;2.40;;;14.00;48.40;;;;;;4332377;33;20176;-61
2021/04/26 12:19:47;;;;;;;5.50;2.70;;;14.10;49.00;;;;;;4342508;32;20152;-61
2021/04/26 12:22:44;;;;;;;7.20;2.30;;;14.30;47.50;;;;;;4334686;33;20236;-60
2021/04/26 12:39:14;;;;;;;7.83;2.60;;;14.30;46.00;;;;;;4370379;32;1698063;-61
2021/04/26 12:41:41;;;;;;;5.67;2.63;;;14.10;47.40;;;;;;4400260;32;20164;-61
2021/04/26 12:44:08;;;;;;;4.20;2.30;;;14.20;47.50;;;;;;4399633;32;20217;-62
2021/04/26 12:46:40;;;;;;;5.70;2.27;;;13.80;48.10;;;;;;4403780;32;20183;-61
2021/04/26 12:49:17;;;;;;;6.20;2.20;;;13.90;49.60;;;;;;4402961;32;20610;-60
2021/04/26 12:51:44;;;;;;;5.07;2.30;;;14.10;48.90;;;;;;4394872;32;20583;-61
2021/04/26 12:54:11;;;;;;;8.23;2.60;;;13.60;49.10;;;;;;4398687;32;20240;-60
2021/04/26 12:56:39;;;;;;;5.03;2.30;;;13.70;49.00;;;;;;4401004;32;20182;-61
2021/04/26 12:59:06;;;;;;;5.70;2.40;;;13.80;48.70;;;;;;4402903;32;20245;-61
2021/04/26 13:01:33;;;;;;;5.77;2.50;;;13.90;48.20;;;;;;4402567;32;20178;-61
2021/04/26 13:04:00;;;;;;;5.37;2.53;;;13.90;48.20;;;;;;4402227;32;20517;-61
2021/04/26 13:06:28;;;;;;;6.70;2.73;;;14.00;48.20;;;;;;4403399;32;20166;-61
2021/04/26 13:08:56;;;;;;;5.00;2.40;;;13.90;48.20;;;;;;4404473;32;20233;-61
2021/04/26 13:11:30;;;;;;;4.23;2.10;;;14.00;48.30;;;;;;4401559;32;20152;-61
2021/04/26 13:14:00;;;;;;;6.07;2.27;;;14.00;48.40;;;;;;4399169;32;20226;-60
2021/04/26 13:16:29;;;;;;;3.87;2.27;;;14.10;48.30;;;;;;4398347;32;20144;-62
2021/04/26 13:18:59;;;;;;;4.77;2.13;;;14.30;47.80;;;;;;4400388;32;20476;-61
2021/04/26 13:21:32;;;;;;;6.77;2.57;;;14.20;47.00;;;;;;4399185;32;20147;-60
2021/04/26 13:24:11;;;;;;;6.30;2.13;;;14.10;47.50;;;;;;4406029;32;20475;-61
2021/04/26 13:26:39;;;;;;;4.60;2.27;;;13.70;48.20;;;;;;4403139;32;20471;-60
2021/04/26 13:29:14;;;;;;;5.87;2.50;;;13.80;47.90;;;;;;4398439;32;20257;-60
2021/04/26 13:31:41;;;;;;;4.83;2.10;;;13.50;49.40;;;;;;4399603;32;20571;-62
2021/04/26 13:34:08;;;;;;;6.87;1.87;;;13.60;48.80;;;;;;4399225;32;20198;-61
2021/04/26 13:36:34;;;;;;;6.60;2.17;;;13.70;49.50;;;;;;4399143;32;20647;-63
2021/04/26 13:39:01;;;;;;;8.60;2.93;;;13.70;48.60;;;;;;4396248;32;20187;-64
2021/04/26 13:41:27;;;;;;;4.43;2.57;;;13.70;49.00;;;;;;4386708;32;20210;-64
2021/04/26 13:43:53;;;;;;;7.17;2.50;;;13.70;48.80;;;;;;4388942;32;20303;-60
2021/04/26 13:46:20;;;;;;;6.77;1.93;;;13.70;49.00;;;;;;4389109;32;20284;-63
2021/04/26 13:48:47;;;;;;;5.93;2.37;;;13.80;48.90;;;;;;4392466;32;20582;-65
2021/04/26 13:51:13;;;;;;;4.43;1.97;;;13.80;48.80;;;;;;4388130;32;20344;-65
2021/04/26 13:53:40;;;;;;;3.97;2.10;;;13.70;48.70;;;;;;4388801;32;20172;-64
2021/04/26 13:56:07;;;;;;;4.97;1.50;;;13.70;48.40;;;;;;4389460;32;20561;-61
2021/04/26 13:58:34;;;;;;;9.53;2.50;;;13.80;48.40;;;;;;4391594;32;20584;-63
2021/04/26 14:01:00;;;;;;;9.40;2.20;;;13.80;48.40;;;;;;4388638;32;20218;-62
2021/04/26 14:03:27;;;;;;;2.23;1.77;;;13.80;48.30;;;;;;4390435;32;20171;-61
2021/04/26 14:05:54;;;;;;;5.77;1.90;;;13.70;48.10;;;;;;4388368;32;20148;-62
2021/04/26 14:08:20;;;;;;;3.20;2.07;;;13.50;48.20;;;;;;4395704;32;20249;-63
2021/04/26 14:10:50;;;;;;;7.27;2.37;;;13.60;47.70;;;;;;4391021;32;20133;-62
2021/04/26 14:16:36;;;;;;;3.70;1.80;;;13.50;48.20;;;;;;4388912;32;20167;-60
2021/04/26 14:19:04;;;;;;;5.40;2.13;;;13.20;48.80;;;;;;4386818;32;20157;-61
2021/04/26 14:21:30;;;;;;;8.23;1.93;;;13.50;48.80;;;;;;4390822;32;20187;-62
2021/04/26 14:23:56;;;;;;;5.97;2.00;;;13.60;48.40;;;;;;4392684;32;20297;-64
2021/04/26 14:26:23;;;;;;;4.77;2.30;;;13.80;47.90;;;;;;4387703;32;20717;-62
2021/04/26 14:28:49;;;;;;;7.23;2.27;;;13.60;48.10;;;;;;4392296;32;20606;-60
2021/04/26 14:31:15;;;;;;;7.10;2.20;;;13.40;48.70;;;;;;4391737;32;20194;-61
2021/04/26 14:33:42;;;;;;;4.53;1.70;;;13.20;49.00;;;;;;4390764;32;20278;-62
2021/04/26 14:36:12;;;;;;;4.60;1.87;;;13.40;49.20;;;;;;4387034;32;20197;-61
2021/04/26 14:38:38;;;;;;;4.13;1.90;;;13.50;48.90;;;;;;4389302;32;20219;-60